sensor_id;sensor_type;location;lat;lon;timestamp;pressure;altitude;pressure_sealevel;temperature;humidity
59391;BME280;53405;57.012;40.984;2023-08-24T00:00:32;99698.75;;;11.60;95.03
59391;BME280;53405;57.012;40.984;2023-08-24T00:03:01;99694.84;;;11.55;94.87
59391;BME280;53405;57.012;40.984;2023-08-24T00:05:34;99709.44;;;11.51;95.34
59391;BME280;53405;57.012;40.984;2023-08-24T00:08:04;99702.69;;;11.49;95.36
59391;BME280;53405;57.012;40.984;2023-08-24T00:10:32;99704.13;;;11.45;96.02
59391;BME280;53405;57.012;40.984;2023-08-24T00:12:59;99711.38;;;11.43;95.67
59391;BME280;53405;57.012;40.984;2023-08-24T00:15:27;99692.06;;;11.35;95.45
59391;BME280;53405;57.012;40.984;2023-08-24T00:17:57;99697.06;;;11.30;95.54
59391;BME280;53405;57.012;40.984;2023-08-24T00:20:25;99700.28;;;11.26;95.43
59391;BME280;53405;57.012;40.984;2023-08-24T00:22:54;99684.59;;;11.17;95.58
59391;BME280;53405;57.012;40.984;2023-08-24T00:25:22;99708.00;;;11.27;95.94
59391;BME280;53405;57.012;40.984;2023-08-24T00:27:49;99711.66;;;11.26;95.63
59391;BME280;53405;57.012;40.984;2023-08-24T00:30:17;99710.75;;;11.19;95.98
59391;BME280;53405;57.012;40.984;2023-08-24T00:32:45;99710.16;;;11.17;96.05
59391;BME280;53405;57.012;40.984;2023-08-24T00:35:13;99707.44;;;11.10;95.75
59391;BME280;53405;57.012;40.984;2023-08-24T00:37:41;99710.28;;;11.09;96.13
59391;BME280;53405;57.012;40.984;2023-08-24T00:40:09;99670.88;;;10.79;96.27
59391;BME280;53405;57.012;40.984;2023-08-24T00:42:38;99710.84;;;11.04;96.05
59391;BME280;53405;57.012;40.984;2023-08-24T00:45:09;99718.50;;;10.99;96.16
59391;BME280;53405;57.012;40.984;2023-08-24T00:47:39;99709.31;;;10.95;96.32
59391;BME280;53405;57.012;40.984;2023-08-24T00:50:07;99716.22;;;10.96;96.92
59391;BME280;53405;57.012;40.984;2023-08-24T00:52:37;99708.50;;;10.94;96.86
59391;BME280;53405;57.012;40.984;2023-08-24T00:55:07;99707.69;;;10.94;96.67
59391;BME280;53405;57.012;40.984;2023-08-24T00:57:37;99704.00;;;10.88;96.44
59391;BME280;53405;57.012;40.984;2023-08-24T01:00:06;99702.53;;;10.85;96.62
59391;BME280;53405;57.012;40.984;2023-08-24T01:02:38;99705.78;;;10.88;96.43
59391;BME280;53405;57.012;40.984;2023-08-24T01:05:07;99694.81;;;10.84;96.28
59391;BME280;53405;57.012;40.984;2023-08-24T01:07:37;99704.19;;;10.87;96.43
59391;BME280;53405;57.012;40.984;2023-08-24T01:10:08;99706.16;;;10.84;96.26
59391;BME280;53405;57.012;40.984;2023-08-24T01:17:42;99700.31;;;10.68;96.43
59391;BME280;53405;57.012;40.984;2023-08-24T01:20:14;99711.28;;;10.71;96.38
59391;BME280;53405;57.012;40.984;2023-08-24T01:28:01;99708.78;;;10.63;96.46
59391;BME280;53405;57.012;40.984;2023-08-24T01:30:31;99718.66;;;10.61;96.80
59391;BME280;53405;57.012;40.984;2023-08-24T01:32:58;99699.34;;;10.54;96.61
59391;BME280;53405;57.012;40.984;2023-08-24T01:35:27;99714.53;;;10.52;96.57
59391;BME280;53405;57.012;40.984;2023-08-24T01:37:54;99700.44;;;10.44;96.41
59391;BME280;53405;57.012;40.984;2023-08-24T01:40:27;99707.00;;;10.48;96.06
59391;BME280;53405;57.012;40.984;2023-08-24T01:43:03;99696.28;;;10.35;95.95
59391;BME280;53405;57.012;40.984;2023-08-24T01:45:32;99713.44;;;10.46;96.39
59391;BME280;53405;57.012;40.984;2023-08-24T01:48:05;99710.44;;;10.49;96.10
59391;BME280;53405;57.012;40.984;2023-08-24T01:50:34;99722.88;;;10.40;96.01
59391;BME280;53405;57.012;40.984;2023-08-24T01:53:05;99704.06;;;10.28;96.15
59391;BME280;53405;57.012;40.984;2023-08-24T01:55:33;99717.16;;;10.37;96.24
59391;BME280;53405;57.012;40.984;2023-08-24T01:58:01;99719.78;;;10.37;95.90
59391;BME280;53405;57.012;40.984;2023-08-24T02:00:30;99715.94;;;10.24;96.23
59391;BME280;53405;57.012;40.984;2023-08-24T02:02:58;99714.03;;;10.18;96.33
59391;BME280;53405;57.012;40.984;2023-08-24T02:05:25;99720.69;;;10.14;96.76
59391;BME280;53405;57.012;40.984;2023-08-24T02:07:55;99704.16;;;10.05;96.69
59391;BME280;53405;57.012;40.984;2023-08-24T02:10:24;99728.94;;;10.11;96.18
59391;BME280;53405;57.012;40.984;2023-08-24T02:12:52;99729.31;;;10.08;96.51
59391;BME280;53405;57.012;40.984;2023-08-24T02:15:20;99735.00;;;10.11;96.01
59391;BME280;53405;57.012;40.984;2023-08-24T02:17:48;99734.00;;;9.98;96.96
59391;BME280;53405;57.012;40.984;2023-08-24T02:20:16;99738.81;;;10.09;96.42
59391;BME280;53405;57.012;40.984;2023-08-24T02:22:43;99740.53;;;10.02;96.90
59391;BME280;53405;57.012;40.984;2023-08-24T02:25:11;99738.53;;;9.89;97.22
59391;BME280;53405;57.012;40.984;2023-08-24T02:27:39;99743.81;;;10.04;95.83
59391;BME280;53405;57.012;40.984;2023-08-24T02:30:07;99709.31;;;9.84;95.65
59391;BME280;53405;57.012;40.984;2023-08-24T02:32:35;99717.84;;;9.86;95.11
59391;BME280;53405;57.012;40.984;2023-08-24T02:35:03;99742.06;;;9.96;94.96
59391;BME280;53405;57.012;40.984;2023-08-24T02:37:31;99758.16;;;10.01;94.71
59391;BME280;53405;57.012;40.984;2023-08-24T02:39:59;99723.28;;;9.84;94.49
59391;BME280;53405;57.012;40.984;2023-08-24T02:42:26;99749.59;;;9.99;94.84
59391;BME280;53405;57.012;40.984;2023-08-24T02:44:54;99756.50;;;10.00;94.27
59391;BME280;53405;57.012;40.984;2023-08-24T02:47:22;99748.34;;;9.95;94.25
59391;BME280;53405;57.012;40.984;2023-08-24T02:49:50;99752.94;;;9.93;94.36
59391;BME280;53405;57.012;40.984;2023-08-24T02:52:18;99752.59;;;9.96;94.25
59391;BME280;53405;57.012;40.984;2023-08-24T02:54:45;99754.41;;;9.95;94.57
59391;BME280;53405;57.012;40.984;2023-08-24T02:57:14;99755.47;;;9.86;94.70
59391;BME280;53405;57.012;40.984;2023-08-24T02:59:41;99726.25;;;9.66;94.59
59391;BME280;53405;57.012;40.984;2023-08-24T03:02:11;99744.25;;;9.77;94.01
59391;BME280;53405;57.012;40.984;2023-08-24T03:04:38;99751.56;;;9.82;94.13
59391;BME280;53405;57.012;40.984;2023-08-24T03:07:06;99730.16;;;9.70;93.89
59391;BME280;53405;57.012;40.984;2023-08-24T03:09:36;99755.03;;;9.83;93.94
59391;BME280;53405;57.012;40.984;2023-08-24T03:12:04;99756.28;;;9.87;93.89
59391;BME280;53405;57.012;40.984;2023-08-24T03:14:32;99769.25;;;9.88;93.98
59391;BME280;53405;57.012;40.984;2023-08-24T03:17:00;99759.00;;;9.79;93.96
59391;BME280;53405;57.012;40.984;2023-08-24T03:19:30;99773.09;;;9.86;93.73
59391;BME280;53405;57.012;40.984;2023-08-24T03:21:57;99769.63;;;9.85;94.12
59391;BME280;53405;57.012;40.984;2023-08-24T03:24:25;99766.81;;;9.87;94.04
59391;BME280;53405;57.012;40.984;2023-08-24T03:26:53;99773.91;;;9.86;93.88
59391;BME280;53405;57.012;40.984;2023-08-24T03:29:21;99770.63;;;9.84;94.39
59391;BME280;53405;57.012;40.984;2023-08-24T03:31:48;99772.44;;;9.84;94.53
59391;BME280;53405;57.012;40.984;2023-08-24T03:34:16;99761.00;;;9.76;94.58
59391;BME280;53405;57.012;40.984;2023-08-24T03:36:44;99770.28;;;9.87;94.66
59391;BME280;53405;57.012;40.984;2023-08-24T03:39:11;99757.84;;;9.81;94.44
59391;BME280;53405;57.012;40.984;2023-08-24T03:41:39;99766.63;;;9.88;94.23
59391;BME280;53405;57.012;40.984;2023-08-24T03:44:07;99763.38;;;9.86;95.07
59391;BME280;53405;57.012;40.984;2023-08-24T03:46:35;99765.28;;;9.92;94.82
59391;BME280;53405;57.012;40.984;2023-08-24T03:49:03;99774.13;;;10.00;93.66
59391;BME280;53405;57.012;40.984;2023-08-24T03:51:30;99765.03;;;10.02;93.50
59391;BME280;53405;57.012;40.984;2023-08-24T03:53:59;99758.59;;;10.05;95.03
59391;BME280;53405;57.012;40.984;2023-08-24T03:56:27;99771.22;;;10.09;94.08
59391;BME280;53405;57.012;40.984;2023-08-24T03:58:56;99773.13;;;10.16;92.95
59391;BME280;53405;57.012;40.984;2023-08-24T04:01:24;99777.03;;;10.20;93.06
59391;BME280;53405;57.012;40.984;2023-08-24T04:03:52;99761.59;;;10.17;93.40
59391;BME280;53405;57.012;40.984;2023-08-24T04:06:20;99773.50;;;10.27;94.08
59391;BME280;53405;57.012;40.984;2023-08-24T04:08:47;99780.22;;;10.30;94.27
59391;BME280;53405;57.012;40.984;2023-08-24T04:11:15;99781.13;;;10.37;93.85
59391;BME280;53405;57.012;40.984;2023-08-24T04:13:43;99788.22;;;10.37;92.26
59391;BME280;53405;57.012;40.984;2023-08-24T04:16:12;99776.53;;;10.39;94.37
59391;BME280;53405;57.012;40.984;2023-08-24T04:18:39;99785.59;;;10.52;93.88
59391;BME280;53405;57.012;40.984;2023-08-24T04:21:08;99794.94;;;10.54;91.20
59391;BME280;53405;57.012;40.984;2023-08-24T04:23:35;99753.47;;;10.41;90.75
59391;BME280;53405;57.012;40.984;2023-08-24T04:26:03;99792.19;;;10.62;92.55
59391;BME280;53405;57.012;40.984;2023-08-24T04:28:32;99794.94;;;10.69;92.13
59391;BME280;53405;57.012;40.984;2023-08-24T04:30:59;99791.13;;;10.72;92.90
59391;BME280;53405;57.012;40.984;2023-08-24T04:33:27;99792.81;;;10.79;90.98
59391;BME280;53405;57.012;40.984;2023-08-24T04:35:55;99799.63;;;10.89;91.65
59391;BME280;53405;57.012;40.984;2023-08-24T04:38:23;99791.72;;;10.89;91.03
59391;BME280;53405;57.012;40.984;2023-08-24T04:40:53;99797.06;;;10.95;89.84
59391;BME280;53405;57.012;40.984;2023-08-24T04:43:22;99797.13;;;11.02;90.18
59391;BME280;53405;57.012;40.984;2023-08-24T04:45:52;99770.66;;;10.89;87.89
59391;BME280;53405;57.012;40.984;2023-08-24T04:48:21;99796.22;;;11.10;88.02
59391;BME280;53405;57.012;40.984;2023-08-24T04:50:50;99801.22;;;11.19;87.75
59391;BME280;53405;57.012;40.984;2023-08-24T04:53:18;99791.91;;;11.24;92.01
59391;BME280;53405;57.012;40.984;2023-08-24T04:55:46;99797.16;;;11.38;89.01
59391;BME280;53405;57.012;40.984;2023-08-24T04:58:14;99804.34;;;11.51;90.21
59391;BME280;53405;57.012;40.984;2023-08-24T05:00:42;99786.84;;;11.44;84.44
59391;BME280;53405;57.012;40.984;2023-08-24T05:03:10;99801.47;;;11.46;82.36
59391;BME280;53405;57.012;40.984;2023-08-24T05:05:38;99781.69;;;11.35;81.89
59391;BME280;53405;57.012;40.984;2023-08-24T05:08:06;99796.63;;;11.50;82.65
59391;BME280;53405;57.012;40.984;2023-08-24T05:10:38;99769.75;;;11.39;82.33
59391;BME280;53405;57.012;40.984;2023-08-24T05:13:06;99786.34;;;11.55;80.79
59391;BME280;53405;57.012;40.984;2023-08-24T05:15:34;99792.72;;;11.67;82.14
59391;BME280;53405;57.012;40.984;2023-08-24T05:18:01;99796.22;;;11.74;82.31
59391;BME280;53405;57.012;40.984;2023-08-24T05:20:29;99787.81;;;11.86;81.23
59391;BME280;53405;57.012;40.984;2023-08-24T05:22:57;99786.50;;;11.97;81.65
59391;BME280;53405;57.012;40.984;2023-08-24T05:25:25;99791.00;;;12.03;86.76
59391;BME280;53405;57.012;40.984;2023-08-24T05:27:53;99789.13;;;12.25;86.89
59391;BME280;53405;57.012;40.984;2023-08-24T05:30:20;99797.09;;;12.32;82.58
59391;BME280;53405;57.012;40.984;2023-08-24T05:32:48;99786.94;;;12.28;79.83
59391;BME280;53405;57.012;40.984;2023-08-24T05:35:16;99800.94;;;12.29;80.93
59391;BME280;53405;57.012;40.984;2023-08-24T05:37:43;99790.38;;;12.29;85.31
59391;BME280;53405;57.012;40.984;2023-08-24T05:40:11;99800.84;;;12.44;83.97
59391;BME280;53405;57.012;40.984;2023-08-24T05:42:39;99771.09;;;12.28;85.87
59391;BME280;53405;57.012;40.984;2023-08-24T05:45:07;99794.34;;;12.53;82.63
59391;BME280;53405;57.012;40.984;2023-08-24T05:47:35;99763.03;;;12.43;83.48
59391;BME280;53405;57.012;40.984;2023-08-24T05:50:02;99791.59;;;12.68;85.46
59391;BME280;53405;57.012;40.984;2023-08-24T05:52:30;99791.66;;;12.81;86.86
59391;BME280;53405;57.012;40.984;2023-08-24T05:54:58;99804.53;;;12.98;85.90
59391;BME280;53405;57.012;40.984;2023-08-24T05:57:26;99792.38;;;13.10;85.87
59391;BME280;53405;57.012;40.984;2023-08-24T05:59:54;99792.59;;;13.15;84.52
59391;BME280;53405;57.012;40.984;2023-08-24T06:02:21;99796.03;;;13.23;84.10
59391;BME280;53405;57.012;40.984;2023-08-24T06:04:49;99799.13;;;13.26;82.59
59391;BME280;53405;57.012;40.984;2023-08-24T06:07:17;99798.56;;;13.44;80.79
59391;BME280;53405;57.012;40.984;2023-08-24T06:09:45;99795.53;;;13.47;76.09
59391;BME280;53405;57.012;40.984;2023-08-24T06:12:13;99797.56;;;13.52;76.08
59391;BME280;53405;57.012;40.984;2023-08-24T06:14:40;99797.16;;;13.55;73.94
59391;BME280;53405;57.012;40.984;2023-08-24T06:17:08;99803.28;;;13.62;75.33
59391;BME280;53405;57.012;40.984;2023-08-24T06:19:40;99799.59;;;13.63;72.56
59391;BME280;53405;57.012;40.984;2023-08-24T06:22:09;99794.75;;;13.73;77.19
59391;BME280;53405;57.012;40.984;2023-08-24T06:24:36;99795.34;;;13.82;73.36
59391;BME280;53405;57.012;40.984;2023-08-24T06:27:04;99797.16;;;13.88;71.67
59391;BME280;53405;57.012;40.984;2023-08-24T06:29:31;99804.50;;;13.93;71.34
59391;BME280;53405;57.012;40.984;2023-08-24T06:32:00;99805.72;;;14.04;74.67
59391;BME280;53405;57.012;40.984;2023-08-24T06:34:31;99800.59;;;14.16;73.09
59391;BME280;53405;57.012;40.984;2023-08-24T06:37:01;99804.47;;;14.26;69.99
59391;BME280;53405;57.012;40.984;2023-08-24T06:39:32;99816.09;;;14.25;73.22
59391;BME280;53405;57.012;40.984;2023-08-24T06:42:00;99805.06;;;14.35;66.56
59391;BME280;53405;57.012;40.984;2023-08-24T06:44:30;99771.25;;;14.17;67.31
59391;BME280;53405;57.012;40.984;2023-08-24T06:46:59;99808.31;;;14.37;69.10
59391;BME280;53405;57.012;40.984;2023-08-24T06:49:26;99812.56;;;14.52;67.10
59391;BME280;53405;57.012;40.984;2023-08-24T06:51:54;99807.25;;;14.52;63.04
59391;BME280;53405;57.012;40.984;2023-08-24T06:54:22;99814.00;;;14.48;63.00
59391;BME280;53405;57.012;40.984;2023-08-24T06:56:50;99800.97;;;14.46;66.88
59391;BME280;53405;57.012;40.984;2023-08-24T06:59:18;99796.44;;;14.53;67.15
59391;BME280;53405;57.012;40.984;2023-08-24T07:01:45;99821.72;;;14.62;67.49
59391;BME280;53405;57.012;40.984;2023-08-24T07:04:14;99823.31;;;14.77;66.04
59391;BME280;53405;57.012;40.984;2023-08-24T07:06:42;99819.22;;;14.81;58.37
59391;BME280;53405;57.012;40.984;2023-08-24T07:09:11;99817.16;;;14.83;59.03
59391;BME280;53405;57.012;40.984;2023-08-24T07:11:38;99819.19;;;14.88;62.19
59391;BME280;53405;57.012;40.984;2023-08-24T07:14:06;99818.31;;;15.00;61.94
59391;BME280;53405;57.012;40.984;2023-08-24T07:16:34;99821.78;;;15.08;60.89
59391;BME280;53405;57.012;40.984;2023-08-24T07:19:01;99816.69;;;15.06;61.28
59391;BME280;53405;57.012;40.984;2023-08-24T07:21:29;99824.59;;;15.13;59.76
59391;BME280;53405;57.012;40.984;2023-08-24T07:23:57;99828.25;;;15.18;56.53
59391;BME280;53405;57.012;40.984;2023-08-24T07:26:25;99831.13;;;15.17;61.25
59391;BME280;53405;57.012;40.984;2023-08-24T07:28:53;99828.97;;;15.32;56.85
59391;BME280;53405;57.012;40.984;2023-08-24T07:31:21;99834.47;;;15.38;57.77
59391;BME280;53405;57.012;40.984;2023-08-24T07:33:49;99797.47;;;15.11;57.85
59391;BME280;53405;57.012;40.984;2023-08-24T07:36:17;99827.31;;;15.38;59.31
59391;BME280;53405;57.012;40.984;2023-08-24T07:38:45;99826.56;;;15.56;61.01
59391;BME280;53405;57.012;40.984;2023-08-24T07:41:15;99824.31;;;15.60;56.39
59391;BME280;53405;57.012;40.984;2023-08-24T07:43:45;99809.03;;;15.55;55.77
59391;BME280;53405;57.012;40.984;2023-08-24T07:46:13;99818.53;;;15.69;53.46
59391;BME280;53405;57.012;40.984;2023-08-24T07:48:40;99797.78;;;15.60;54.04
59391;BME280;53405;57.012;40.984;2023-08-24T07:51:09;99807.50;;;15.72;52.48
59391;BME280;53405;57.012;40.984;2023-08-24T07:53:37;99821.50;;;15.86;52.32
59391;BME280;53405;57.012;40.984;2023-08-24T07:56:04;99819.81;;;15.92;52.63
59391;BME280;53405;57.012;40.984;2023-08-24T07:58:32;99834.50;;;15.95;53.04
59391;BME280;53405;57.012;40.984;2023-08-24T08:01:00;99831.88;;;15.56;53.29
59391;BME280;53405;57.012;40.984;2023-08-24T08:03:28;99834.06;;;15.34;54.23
59391;BME280;53405;57.012;40.984;2023-08-24T08:05:57;99832.88;;;15.30;55.51
59391;BME280;53405;57.012;40.984;2023-08-24T08:08:25;99836.28;;;15.37;55.68
59391;BME280;53405;57.012;40.984;2023-08-24T08:11:01;99827.19;;;15.58;55.74
59391;BME280;53405;57.012;40.984;2023-08-24T08:13:29;99833.50;;;15.96;52.77
59391;BME280;53405;57.012;40.984;2023-08-24T08:16:02;99834.34;;;16.15;52.48
59391;BME280;53405;57.012;40.984;2023-08-24T08:18:32;99828.38;;;16.38;51.35
59391;BME280;53405;57.012;40.984;2023-08-24T08:21:00;99833.06;;;16.61;48.92
59391;BME280;53405;57.012;40.984;2023-08-24T08:23:28;99825.38;;;16.90;48.54
59391;BME280;53405;57.012;40.984;2023-08-24T08:25:55;99831.50;;;17.09;46.76
59391;BME280;53405;57.012;40.984;2023-08-24T08:28:23;99833.47;;;17.13;45.40
59391;BME280;53405;57.012;40.984;2023-08-24T08:30:51;99814.53;;;16.91;46.27
59391;BME280;53405;57.012;40.984;2023-08-24T08:33:19;99834.03;;;17.04;47.14
59391;BME280;53405;57.012;40.984;2023-08-24T08:35:49;99828.84;;;17.09;46.99
59391;BME280;53405;57.012;40.984;2023-08-24T08:38:16;99826.41;;;17.38;47.57
59391;BME280;53405;57.012;40.984;2023-08-24T08:40:46;99833.84;;;17.90;46.03
59391;BME280;53405;57.012;40.984;2023-08-24T08:43:13;99816.94;;;18.08;44.32
59391;BME280;53405;57.012;40.984;2023-08-24T08:45:42;99825.56;;;17.67;47.17
59391;BME280;53405;57.012;40.984;2023-08-24T08:48:10;99824.06;;;17.60;50.41
59391;BME280;53405;57.012;40.984;2023-08-24T08:50:38;99826.69;;;18.37;45.32
59391;BME280;53405;57.012;40.984;2023-08-24T08:53:06;99826.78;;;18.42;41.96
59391;BME280;53405;57.012;40.984;2023-08-24T08:55:34;99829.56;;;17.88;43.52
59391;BME280;53405;57.012;40.984;2023-08-24T08:58:02;99828.66;;;17.52;47.04
59391;BME280;53405;57.012;40.984;2023-08-24T09:00:32;99834.69;;;17.29;46.76
59391;BME280;53405;57.012;40.984;2023-08-24T09:03:00;99838.53;;;17.03;48.49
59391;BME280;53405;57.012;40.984;2023-08-24T09:05:30;99834.66;;;16.80;50.20
59391;BME280;53405;57.012;40.984;2023-08-24T09:07:59;99839.28;;;16.73;51.87
59391;BME280;53405;57.012;40.984;2023-08-24T09:10:30;99832.41;;;16.66;46.14
59391;BME280;53405;57.012;40.984;2023-08-24T09:12:58;99843.78;;;16.54;47.90
59391;BME280;53405;57.012;40.984;2023-08-24T09:15:34;99831.22;;;16.43;47.39
59391;BME280;53405;57.012;40.984;2023-08-24T09:18:03;99844.53;;;16.36;45.85
59391;BME280;53405;57.012;40.984;2023-08-24T09:20:31;99835.84;;;16.29;46.73
59391;BME280;53405;57.012;40.984;2023-08-24T09:22:58;99838.28;;;16.31;47.48
59391;BME280;53405;57.012;40.984;2023-08-24T09:25:27;99845.59;;;16.35;47.17
59391;BME280;53405;57.012;40.984;2023-08-24T09:27:59;99841.22;;;16.41;47.76
59391;BME280;53405;57.012;40.984;2023-08-24T09:30:31;99842.53;;;16.94;45.89
59391;BME280;53405;57.012;40.984;2023-08-24T09:33:09;99841.50;;;17.98;41.57
59391;BME280;53405;57.012;40.984;2023-08-24T09:35:37;99825.91;;;18.77;41.16
59391;BME280;53405;57.012;40.984;2023-08-24T09:38:22;99837.88;;;20.07;38.76
59391;BME280;53405;57.012;40.984;2023-08-24T09:40:51;99784.13;;;19.87;38.33
59391;BME280;53405;57.012;40.984;2023-08-24T09:43:20;99841.16;;;20.31;38.30
59391;BME280;53405;57.012;40.984;2023-08-24T09:45:55;99845.69;;;20.70;39.91
59391;BME280;53405;57.012;40.984;2023-08-24T09:48:23;99837.63;;;21.14;38.70
59391;BME280;53405;57.012;40.984;2023-08-24T09:50:52;99840.47;;;20.80;37.46
59391;BME280;53405;57.012;40.984;2023-08-24T09:53:22;99836.16;;;20.01;39.10
59391;BME280;53405;57.012;40.984;2023-08-24T09:56:01;99836.13;;;19.21;40.40
59391;BME280;53405;57.012;40.984;2023-08-24T09:58:29;99840.31;;;18.65;44.69
59391;BME280;53405;57.012;40.984;2023-08-24T10:00:58;99833.28;;;18.35;41.24
59391;BME280;53405;57.012;40.984;2023-08-24T10:03:27;99834.44;;;17.92;42.26
59391;BME280;53405;57.012;40.984;2023-08-24T10:05:57;99829.94;;;17.62;43.00
59391;BME280;53405;57.012;40.984;2023-08-24T10:08:44;99837.44;;;17.53;43.83
59391;BME280;53405;57.012;40.984;2023-08-24T10:11:17;99812.78;;;17.46;47.98
59391;BME280;53405;57.012;40.984;2023-08-24T10:14:22;99831.00;;;17.73;45.91
59391;BME280;53405;57.012;40.984;2023-08-24T10:16:51;99823.72;;;17.68;45.80
59391;BME280;53405;57.012;40.984;2023-08-24T10:19:21;99799.69;;;17.44;45.03
59391;BME280;53405;57.012;40.984;2023-08-24T10:21:51;99823.00;;;18.15;44.18
59391;BME280;53405;57.012;40.984;2023-08-24T10:24:20;99829.69;;;18.53;43.85
59391;BME280;53405;57.012;40.984;2023-08-24T10:26:49;99820.31;;;18.15;46.97
59391;BME280;53405;57.012;40.984;2023-08-24T10:29:17;99834.44;;;18.03;46.38
59391;BME280;53405;57.012;40.984;2023-08-24T10:31:45;99831.78;;;17.92;45.21
59391;BME280;53405;57.012;40.984;2023-08-24T10:34:13;99803.44;;;17.55;44.28
59391;BME280;53405;57.012;40.984;2023-08-24T10:36:41;99833.63;;;17.49;49.09
59391;BME280;53405;57.012;40.984;2023-08-24T10:39:09;99830.13;;;17.48;47.10
59391;BME280;53405;57.012;40.984;2023-08-24T10:41:47;99830.50;;;17.52;46.52
59391;BME280;53405;57.012;40.984;2023-08-24T10:44:24;99827.84;;;17.52;49.28
59391;BME280;53405;57.012;40.984;2023-08-24T10:49:42;99804.69;;;17.52;46.07
59391;BME280;53405;57.012;40.984;2023-08-24T10:54:53;99807.69;;;17.44;48.83
59391;BME280;53405;57.012;40.984;2023-08-24T10:57:26;99828.75;;;17.58;48.73
59391;BME280;53405;57.012;40.984;2023-08-24T11:02:46;99832.91;;;17.42;47.40
59391;BME280;53405;57.012;40.984;2023-08-24T11:05:20;99829.69;;;17.51;49.56
59391;BME280;53405;57.012;40.984;2023-08-24T11:08:02;99824.16;;;17.65;49.45
59391;BME280;53405;57.012;40.984;2023-08-24T11:10:49;99832.09;;;17.83;47.87
59391;BME280;53405;57.012;40.984;2023-08-24T11:13:18;99826.44;;;17.92;45.17
59391;BME280;53405;57.012;40.984;2023-08-24T11:15:51;99832.00;;;18.02;48.48
59391;BME280;53405;57.012;40.984;2023-08-24T11:18:24;99831.31;;;18.18;47.10
59391;BME280;53405;57.012;40.984;2023-08-24T11:20:55;99835.38;;;18.09;47.34
59391;BME280;53405;57.012;40.984;2023-08-24T11:23:24;99818.66;;;18.02;45.62
59391;BME280;53405;57.012;40.984;2023-08-24T11:25:55;99783.78;;;17.80;44.84
59391;BME280;53405;57.012;40.984;2023-08-24T11:28:27;99836.75;;;18.00;45.05
59391;BME280;53405;57.012;40.984;2023-08-24T11:31:04;99822.81;;;17.86;43.28
59391;BME280;53405;57.012;40.984;2023-08-24T11:33:33;99827.91;;;17.76;43.73
59391;BME280;53405;57.012;40.984;2023-08-24T11:36:05;99819.53;;;17.60;44.97
59391;BME280;53405;57.012;40.984;2023-08-24T11:38:36;99818.34;;;17.44;46.00
59391;BME280;53405;57.012;40.984;2023-08-24T11:41:12;99832.53;;;17.38;46.84
59391;BME280;53405;57.012;40.984;2023-08-24T11:43:42;99836.66;;;17.22;47.79
59391;BME280;53405;57.012;40.984;2023-08-24T11:46:10;99839.47;;;17.09;48.99
59391;BME280;53405;57.012;40.984;2023-08-24T11:48:38;99845.97;;;17.13;49.36
59391;BME280;53405;57.012;40.984;2023-08-24T11:51:11;99832.31;;;17.09;48.32
59391;BME280;53405;57.012;40.984;2023-08-24T11:53:41;99834.59;;;17.06;51.34
59391;BME280;53405;57.012;40.984;2023-08-24T11:56:11;99830.56;;;17.03;52.57
59391;BME280;53405;57.012;40.984;2023-08-24T11:58:40;99821.16;;;17.01;53.86
59391;BME280;53405;57.012;40.984;2023-08-24T12:01:09;99843.63;;;17.23;49.36
59391;BME280;53405;57.012;40.984;2023-08-24T12:03:38;99833.94;;;17.10;49.69
59391;BME280;53405;57.012;40.984;2023-08-24T12:06:16;99831.50;;;17.09;50.40
59391;BME280;53405;57.012;40.984;2023-08-24T12:08:47;99810.38;;;17.14;50.28
59391;BME280;53405;57.012;40.984;2023-08-24T12:11:17;99834.34;;;17.26;49.89
59391;BME280;53405;57.012;40.984;2023-08-24T12:13:49;99836.66;;;17.22;48.85
59391;BME280;53405;57.012;40.984;2023-08-24T12:16:18;99838.97;;;17.19;48.73
59391;BME280;53405;57.012;40.984;2023-08-24T12:18:50;99832.78;;;17.06;47.02
59391;BME280;53405;57.012;40.984;2023-08-24T12:21:18;99823.97;;;17.06;47.07
59391;BME280;53405;57.012;40.984;2023-08-24T12:24:04;99828.38;;;17.12;47.48
59391;BME280;53405;57.012;40.984;2023-08-24T12:26:36;99834.34;;;17.26;50.74
59391;BME280;53405;57.012;40.984;2023-08-24T12:29:05;99823.47;;;17.27;50.50
59391;BME280;53405;57.012;40.984;2023-08-24T12:31:34;99801.38;;;17.27;49.67
59391;BME280;53405;57.012;40.984;2023-08-24T12:34:06;99833.84;;;17.47;47.53
59391;BME280;53405;57.012;40.984;2023-08-24T12:36:37;99832.66;;;17.43;49.09
59391;BME280;53405;57.012;40.984;2023-08-24T12:39:06;99825.50;;;17.44;49.74
59391;BME280;53405;57.012;40.984;2023-08-24T12:41:37;99823.19;;;17.47;48.43
59391;BME280;53405;57.012;40.984;2023-08-24T12:44:05;99818.56;;;17.55;49.97
59391;BME280;53405;57.012;40.984;2023-08-24T12:46:34;99828.47;;;17.66;47.03
59391;BME280;53405;57.012;40.984;2023-08-24T12:49:03;99827.84;;;17.64;47.20
59391;BME280;53405;57.012;40.984;2023-08-24T12:51:33;99828.75;;;17.58;46.38
59391;BME280;53405;57.012;40.984;2023-08-24T12:54:00;99831.09;;;17.54;46.95
59391;BME280;53405;57.012;40.984;2023-08-24T12:56:29;99832.25;;;17.58;47.64
59391;BME280;53405;57.012;40.984;2023-08-24T12:58:56;99826.03;;;17.64;47.24
59391;BME280;53405;57.012;40.984;2023-08-24T13:01:26;99822.44;;;17.70;46.45
59391;BME280;53405;57.012;40.984;2023-08-24T13:03:54;99814.47;;;17.70;45.47
59391;BME280;53405;57.012;40.984;2023-08-24T13:06:24;99829.25;;;17.66;45.00
59391;BME280;53405;57.012;40.984;2023-08-24T13:08:53;99825.75;;;17.54;47.56
59391;BME280;53405;57.012;40.984;2023-08-24T13:11:22;99813.47;;;17.41;47.76
59391;BME280;53405;57.012;40.984;2023-08-24T13:13:50;99799.19;;;17.24;44.89
59391;BME280;53405;57.012;40.984;2023-08-24T13:16:18;99825.22;;;17.33;47.24
59391;BME280;53405;57.012;40.984;2023-08-24T13:18:47;99818.56;;;17.43;46.08